createdAt,value
2022-11-30T00:01:27.878Z,10.10
2022-11-30T00:03:55.903Z,10.10
2022-11-30T00:06:24.247Z,10.00
2022-11-30T00:08:55.344Z,10.00
2022-11-30T00:11:23.901Z,10.10
2022-11-30T00:13:50.892Z,10.10
2022-11-30T00:16:17.917Z,10.10
2022-11-30T00:18:44.564Z,10.10
2022-11-30T00:21:13.793Z,10.10
2022-11-30T00:23:42.583Z,10.10
2022-11-30T00:26:12.118Z,10.00
2022-11-30T00:28:39.759Z,10.10
2022-11-30T00:31:10.190Z,10.00
2022-11-30T00:33:37.767Z,10.00
2022-11-30T00:36:12.039Z,10.00
2022-11-30T00:38:39.234Z,10.00
2022-11-30T00:41:06.363Z,10.10
2022-11-30T00:43:33.259Z,10.10
2022-11-30T00:46:00.078Z,10.10
2022-11-30T00:48:26.768Z,10.00
2022-11-30T00:50:53.674Z,10.10
2022-11-30T00:53:20.650Z,10.00
2022-11-30T00:55:47.703Z,10.00
2022-11-30T00:58:14.891Z,10.00
2022-11-30T01:00:42.447Z,10.00
2022-11-30T01:03:09.307Z,10.00
2022-11-30T01:05:36.525Z,10.00
2022-11-30T01:08:05.167Z,10.00
2022-11-30T01:10:33.216Z,10.00
2022-11-30T01:13:00.000Z,10.00
2022-11-30T01:15:26.619Z,10.00
2022-11-30T01:17:53.361Z,10.00
2022-11-30T01:20:20.213Z,10.00
2022-11-30T01:22:46.781Z,10.00
2022-11-30T01:25:13.433Z,10.00
2022-11-30T01:27:39.991Z,10.00
2022-11-30T01:30:08.027Z,10.00
2022-11-30T01:32:34.675Z,10.00
2022-11-30T01:35:01.267Z,10.00
2022-11-30T01:37:30.003Z,10.00
2022-11-30T01:39:56.814Z,10.00
2022-11-30T01:42:24.005Z,10.00
2022-11-30T01:44:58.541Z,10.00
2022-11-30T01:47:39.298Z,10.00
2022-11-30T01:50:15.037Z,10.00
2022-11-30T01:52:46.760Z,10.00
2022-11-30T01:55:20.742Z,10.00
2022-11-30T01:57:59.371Z,10.00
2022-11-30T02:00:26.039Z,10.00
2022-11-30T02:03:11.283Z,10.00
2022-11-30T02:05:40.326Z,10.00
2022-11-30T02:08:10.443Z,10.00
2022-11-30T02:10:40.077Z,10.00
2022-11-30T02:13:32.731Z,10.00
2022-11-30T02:16:19.453Z,10.00
2022-11-30T02:18:55.195Z,9.90
2022-11-30T02:21:46.758Z,9.90
2022-11-30T02:24:37.587Z,9.90
2022-11-30T02:27:32.628Z,9.90
2022-11-30T02:30:08.402Z,9.90
2022-11-30T02:32:47.350Z,9.90
2022-11-30T02:35:17.416Z,9.90
2022-11-30T02:37:45.107Z,9.80
2022-11-30T02:40:16.095Z,9.80
2022-11-30T02:42:42.792Z,9.80
2022-11-30T02:45:10.857Z,9.90
2022-11-30T02:47:45.346Z,9.80
2022-11-30T02:50:18.719Z,9.90
2022-11-30T02:52:46.081Z,9.90
2022-11-30T02:55:16.625Z,9.80
2022-11-30T02:57:43.250Z,9.80
2022-11-30T03:00:11.505Z,9.90
2022-11-30T03:02:38.757Z,9.80
2022-11-30T03:05:06.338Z,9.80
2022-11-30T03:07:33.285Z,9.80
2022-11-30T03:10:00.162Z,9.80
2022-11-30T03:12:26.890Z,9.70
2022-11-30T03:14:53.701Z,9.70
2022-11-30T03:17:20.275Z,9.70
2022-11-30T03:19:46.877Z,9.70
2022-11-30T03:22:13.448Z,9.70
2022-11-30T03:24:40.061Z,9.70
2022-11-30T03:27:06.747Z,9.60
2022-11-30T03:29:33.360Z,9.60
2022-11-30T03:31:59.962Z,9.60
2022-11-30T03:34:27.562Z,9.70
2022-11-30T03:36:54.823Z,9.70
2022-11-30T03:39:21.407Z,9.70
2022-11-30T03:41:48.016Z,9.70
2022-11-30T03:44:14.613Z,9.70
2022-11-30T03:46:41.258Z,9.70
2022-11-30T03:49:07.817Z,9.70
2022-11-30T03:51:34.558Z,9.70
2022-11-30T03:54:01.401Z,9.70
2022-11-30T03:56:28.478Z,9.70
2022-11-30T03:58:55.080Z,9.70
2022-11-30T04:01:25.093Z,9.70
2022-11-30T04:03:52.494Z,9.70
2022-11-30T04:06:20.331Z,9.70
2022-11-30T04:08:47.705Z,9.70
2022-11-30T04:11:14.923Z,9.70
2022-11-30T04:13:42.072Z,9.70
2022-11-30T04:16:08.997Z,9.70
2022-11-30T04:18:37.214Z,9.70
2022-11-30T04:21:04.861Z,9.70
2022-11-30T04:23:34.203Z,9.70
2022-11-30T04:26:03.496Z,9.60
2022-11-30T04:28:30.186Z,9.70
2022-11-30T04:30:57.124Z,9.70
2022-11-30T04:33:23.898Z,9.60
2022-11-30T04:35:54.511Z,9.60
2022-11-30T04:38:21.187Z,9.70
2022-11-30T04:40:47.774Z,9.60
2022-11-30T04:43:14.551Z,9.60
2022-11-30T04:45:42.718Z,9.60
2022-11-30T04:48:09.426Z,9.60
2022-11-30T04:50:36.269Z,9.60
2022-11-30T04:53:03.050Z,9.60
2022-11-30T04:55:29.694Z,9.60
2022-11-30T04:57:56.307Z,9.60
2022-11-30T05:00:23.060Z,9.60
2022-11-30T05:02:52.820Z,9.60
2022-11-30T05:05:20.118Z,9.50
2022-11-30T05:07:57.338Z,9.60
2022-11-30T05:10:24.595Z,9.50
2022-11-30T05:12:51.854Z,9.60
2022-11-30T05:15:19.042Z,9.50
2022-11-30T05:17:45.610Z,9.40
2022-11-30T05:20:12.436Z,9.50
2022-11-30T05:22:39.154Z,9.50
2022-11-30T05:25:06.222Z,9.50
2022-11-30T05:27:32.787Z,9.50
2022-11-30T05:29:59.380Z,9.50
2022-11-30T05:32:25.982Z,9.50
2022-11-30T05:34:52.628Z,9.40
2022-11-30T05:37:20.104Z,9.40
2022-11-30T05:39:46.784Z,9.40
2022-11-30T05:42:13.436Z,9.40
2022-11-30T05:44:40.049Z,9.30
2022-11-30T05:47:06.766Z,9.30
2022-11-30T05:49:33.369Z,9.30
2022-11-30T05:51:59.930Z,9.30
2022-11-30T05:54:26.553Z,9.30
2022-11-30T05:56:55.276Z,9.30
2022-11-30T05:59:22.897Z,9.30
2022-11-30T06:01:52.368Z,9.30
2022-11-30T06:04:19.715Z,9.20
2022-11-30T06:06:46.377Z,9.20
2022-11-30T06:09:13.066Z,9.20
2022-11-30T06:11:39.627Z,9.20
2022-11-30T06:14:06.323Z,9.20
2022-11-30T06:16:33.146Z,9.20
2022-11-30T06:18:59.806Z,9.20
2022-11-30T06:21:26.450Z,9.20
2022-11-30T06:23:53.239Z,9.20
2022-11-30T06:26:19.827Z,9.20
2022-11-30T06:28:48.398Z,9.20
2022-11-30T06:31:15.734Z,9.20
2022-11-30T06:33:42.402Z,9.20
2022-11-30T06:36:09.753Z,9.10
2022-11-30T06:38:36.364Z,9.10
2022-11-30T06:41:09.023Z,9.10
2022-11-30T06:43:37.152Z,9.10
2022-11-30T06:46:04.857Z,9.10
2022-11-30T06:48:31.875Z,9.00
2022-11-30T06:50:59.024Z,9.00
2022-11-30T06:53:26.024Z,8.90
2022-11-30T06:55:53.300Z,8.90
2022-11-30T06:58:19.992Z,8.80
2022-11-30T07:00:46.585Z,8.80
2022-11-30T07:03:13.624Z,8.80
2022-11-30T07:05:44.107Z,8.70
2022-11-30T07:08:11.921Z,8.70
2022-11-30T07:10:43.846Z,8.60
2022-11-30T07:13:12.035Z,8.60
2022-11-30T07:15:39.654Z,8.60
2022-11-30T07:18:06.434Z,8.50
2022-11-30T07:20:33.259Z,8.50
2022-11-30T07:23:22.819Z,8.50
2022-11-30T07:26:11.869Z,8.50
2022-11-30T07:28:40.681Z,8.40
2022-11-30T07:31:36.794Z,8.40
2022-11-30T07:34:09.183Z,8.40
2022-11-30T07:36:36.446Z,8.40
2022-11-30T07:39:04.079Z,8.40
2022-11-30T07:41:31.696Z,8.30
2022-11-30T07:43:58.353Z,8.30
2022-11-30T07:46:25.136Z,8.30
2022-11-30T07:48:51.903Z,8.30
2022-11-30T07:51:20.916Z,8.30
2022-11-30T07:53:47.983Z,8.20
2022-11-30T07:56:17.295Z,8.30
2022-11-30T07:58:44.599Z,8.20
2022-11-30T08:01:13.724Z,8.20
2022-11-30T08:03:40.455Z,8.30
2022-11-30T08:06:12.682Z,8.30
2022-11-30T08:08:42.449Z,8.30
2022-11-30T08:11:12.249Z,8.30
2022-11-30T08:13:39.482Z,8.30
2022-11-30T08:16:14.158Z,8.40
2022-11-30T08:18:42.042Z,8.40
2022-11-30T08:21:10.569Z,8.40
2022-11-30T08:23:48.768Z,8.40
2022-11-30T08:26:17.960Z,8.40
2022-11-30T08:28:46.033Z,8.50
2022-11-30T08:31:19.642Z,8.50
2022-11-30T08:33:46.862Z,8.60
2022-11-30T08:36:16.058Z,8.70
2022-11-30T08:38:44.286Z,8.70
2022-11-30T08:41:13.401Z,8.70
2022-11-30T08:43:40.509Z,8.80
2022-11-30T08:46:27.901Z,8.80
2022-11-30T08:54:28.907Z,8.90
2022-11-30T08:56:55.514Z,8.90
2022-11-30T08:59:22.105Z,9.00
2022-11-30T09:01:48.658Z,9.00
2022-11-30T09:04:15.272Z,9.00
2022-11-30T09:06:41.940Z,9.10
2022-11-30T09:09:08.540Z,9.10
2022-11-30T09:11:35.142Z,9.10
2022-11-30T09:14:04.403Z,9.10
2022-11-30T09:16:31.359Z,9.20
2022-11-30T09:18:58.108Z,9.20
2022-11-30T09:21:25.957Z,9.20
2022-11-30T09:23:53.231Z,9.20
2022-11-30T09:26:23.646Z,9.20
2022-11-30T09:28:50.514Z,9.30
2022-11-30T09:31:20.331Z,9.30
2022-11-30T09:33:47.727Z,9.40
2022-11-30T09:36:16.565Z,9.40
2022-11-30T09:38:43.359Z,9.50
2022-11-30T09:41:37.696Z,9.50
2022-11-30T09:44:28.626Z,9.50
2022-11-30T09:47:18.547Z,9.50
2022-11-30T09:49:47.412Z,9.60
2022-11-30T09:52:23.338Z,9.60
2022-11-30T09:54:50.221Z,9.60
2022-11-30T09:57:43.274Z,9.70
2022-11-30T10:00:14.951Z,9.70
2022-11-30T10:02:41.819Z,9.90
2022-11-30T10:05:28.781Z,9.80
2022-11-30T10:08:23.648Z,9.80
2022-11-30T10:11:27.446Z,9.90
2022-11-30T10:14:32.331Z,10.00
2022-11-30T10:17:11.210Z,9.90
2022-11-30T10:20:12.876Z,10.00
2022-11-30T10:23:04.670Z,10.00
2022-11-30T10:25:45.428Z,10.00
2022-11-30T10:28:45.420Z,10.10
2022-11-30T10:31:09.313Z,10.20
2022-11-30T10:33:44.319Z,10.30
2022-11-30T10:36:17.160Z,10.40
2022-11-30T10:38:50.090Z,10.50
2022-11-30T10:41:32.706Z,10.20
2022-11-30T10:44:04.251Z,10.20
2022-11-30T10:46:39.930Z,10.00
2022-11-30T10:49:12.310Z,9.90
2022-11-30T10:51:41.590Z,10.00
2022-11-30T10:54:15.909Z,10.10
2022-11-30T10:56:42.813Z,10.00
2022-11-30T10:59:19.770Z,10.00
2022-11-30T11:01:46.383Z,10.00
2022-11-30T11:04:13.125Z,10.00
2022-11-30T11:06:56.277Z,10.00
2022-11-30T11:09:24.216Z,10.00
2022-11-30T11:11:56.347Z,10.10
2022-11-30T11:14:25.382Z,10.10
2022-11-30T11:16:57.087Z,10.10
2022-11-30T11:19:36.018Z,10.10
2022-11-30T11:22:07.128Z,10.10
2022-11-30T11:24:35.118Z,10.20
2022-11-30T11:27:01.785Z,10.20
2022-11-30T11:29:34.332Z,10.30
2022-11-30T11:32:21.609Z,10.30
2022-11-30T11:34:51.241Z,10.30
2022-11-30T11:37:24.325Z,10.40
2022-11-30T11:39:58.896Z,10.50
2022-11-30T11:42:28.901Z,10.50
2022-11-30T11:45:00.903Z,10.60
2022-11-30T11:47:54.422Z,10.60
2022-11-30T11:51:04.847Z,10.70
2022-11-30T11:53:39.389Z,10.80
2022-11-30T11:56:16.570Z,10.80
2022-11-30T11:58:56.407Z,10.80
2022-11-30T12:01:40.761Z,10.90
2022-11-30T12:04:20.587Z,10.90
2022-11-30T12:06:51.777Z,10.90
2022-11-30T12:09:25.303Z,10.90
2022-11-30T12:11:51.996Z,11.10
2022-11-30T12:14:19.610Z,11.20
2022-11-30T12:17:18.534Z,11.30
2022-11-30T12:20:11.426Z,11.30
2022-11-30T12:22:50.318Z,11.20
2022-11-30T12:25:35.495Z,11.10
2022-11-30T12:28:34.346Z,11.10
2022-11-30T12:31:12.278Z,10.90
2022-11-30T12:33:54.806Z,10.90
2022-11-30T12:36:33.296Z,11.00
2022-11-30T12:39:09.758Z,11.00
2022-11-30T12:41:49.030Z,11.00
2022-11-30T12:44:28.953Z,11.10
2022-11-30T12:47:16.714Z,11.00
2022-11-30T12:49:49.616Z,11.10
2022-11-30T12:52:19.445Z,11.10
2022-11-30T12:55:06.898Z,11.20
2022-11-30T12:57:42.902Z,11.10
2022-11-30T13:00:09.889Z,11.10
2022-11-30T13:02:59.929Z,11.00
2022-11-30T13:05:43.920Z,10.90
2022-11-30T13:08:38.896Z,10.90
2022-11-30T13:11:13.446Z,10.80
2022-11-30T13:13:48.887Z,10.60
2022-11-30T13:16:15.699Z,10.50
2022-11-30T13:18:43.149Z,10.40
2022-11-30T13:21:32.413Z,10.30
2022-11-30T13:24:08.478Z,10.30
2022-11-30T13:27:20.532Z,10.30
2022-11-30T13:29:53.475Z,10.10
2022-11-30T13:32:56.054Z,10.10
2022-11-30T13:35:28.920Z,10.10
2022-11-30T13:41:06.189Z,10.30
2022-11-30T13:43:49.053Z,10.30
2022-11-30T13:46:20.436Z,10.40
2022-11-30T13:48:48.549Z,10.30
2022-11-30T13:51:35.476Z,10.30
2022-11-30T13:54:37.509Z,10.20
2022-11-30T13:57:24.332Z,10.10
2022-11-30T13:59:55.828Z,10.20
2022-11-30T14:02:36.336Z,10.20
2022-11-30T14:05:18.364Z,10.20
2022-11-30T14:07:46.034Z,10.20
2022-11-30T14:10:35.541Z,10.20
2022-11-30T14:13:27.571Z,10.30
2022-11-30T14:15:57.933Z,10.40
2022-11-30T14:18:33.066Z,10.40
2022-11-30T14:21:26.235Z,10.40
2022-11-30T14:24:19.826Z,10.40
2022-11-30T14:26:49.254Z,10.40
2022-11-30T14:29:23.340Z,10.50
2022-11-30T14:31:56.101Z,10.40
2022-11-30T14:34:34.835Z,10.50
2022-11-30T14:37:11.331Z,10.50
2022-11-30T14:39:43.863Z,10.40
2022-11-30T14:42:25.234Z,10.20
2022-11-30T14:44:52.595Z,10.20
2022-11-30T14:47:35.822Z,10.20
2022-11-30T14:50:05.788Z,10.20
2022-11-30T14:52:55.761Z,10.10
2022-11-30T14:55:43.888Z,10.10
2022-11-30T14:58:51.910Z,10.10
2022-11-30T15:01:25.316Z,10.00
2022-11-30T15:03:54.870Z,9.80
2022-11-30T15:06:26.862Z,9.80
2022-11-30T15:08:55.527Z,9.70
2022-11-30T15:11:22.575Z,9.70
2022-11-30T15:13:57.573Z,9.60
2022-11-30T15:16:24.161Z,9.50
2022-11-30T15:18:51.997Z,9.60
2022-11-30T15:21:26.077Z,9.50
2022-11-30T15:23:54.954Z,9.50
2022-11-30T15:26:37.281Z,9.50
2022-11-30T15:29:09.618Z,9.40
2022-11-30T15:31:40.500Z,9.20
2022-11-30T15:34:16.393Z,9.20
2022-11-30T15:36:43.002Z,9.20
2022-11-30T15:39:20.840Z,9.20
2022-11-30T15:41:52.742Z,9.20
2022-11-30T15:44:26.366Z,9.10
2022-11-30T15:46:58.550Z,9.00
2022-11-30T15:49:30.862Z,8.80
2022-11-30T15:52:04.228Z,8.80
2022-11-30T15:54:59.691Z,8.80
2022-11-30T15:57:47.345Z,8.70
2022-11-30T16:00:13.852Z,8.70
2022-11-30T16:02:40.470Z,8.60
2022-11-30T16:05:14.218Z,8.60
2022-11-30T16:07:57.109Z,8.60
2022-11-30T16:10:27.599Z,8.60
2022-11-30T16:12:55.207Z,8.60
2022-11-30T16:15:24.842Z,8.60
2022-11-30T16:17:53.482Z,8.60
2022-11-30T16:20:21.050Z,8.60
2022-11-30T16:22:48.644Z,8.60
2022-11-30T16:25:21.107Z,8.60
2022-11-30T16:27:48.050Z,8.60
2022-11-30T16:30:16.815Z,8.70
2022-11-30T16:32:43.635Z,8.70
2022-11-30T16:35:27.180Z,8.70
2022-11-30T16:37:53.830Z,8.70
2022-11-30T16:40:21.048Z,8.60
2022-11-30T16:42:50.741Z,8.60
2022-11-30T16:45:24.957Z,8.50
2022-11-30T16:47:52.341Z,8.50
2022-11-30T16:50:19.994Z,8.40
2022-11-30T16:52:47.046Z,8.40
2022-11-30T16:55:15.723Z,8.30
2022-11-30T16:57:42.881Z,8.30
2022-11-30T17:00:13.097Z,8.20
2022-11-30T17:02:45.866Z,8.10
2022-11-30T17:05:15.057Z,8.10
2022-11-30T17:07:42.047Z,8.00
2022-11-30T17:10:09.338Z,8.00
2022-11-30T17:12:36.032Z,8.00
2022-11-30T17:15:03.905Z,7.90
2022-11-30T17:17:30.541Z,7.90
2022-11-30T17:19:57.130Z,7.90
2022-11-30T17:22:23.742Z,7.90
2022-11-30T17:24:50.498Z,7.80
2022-11-30T17:27:17.255Z,7.90
2022-11-30T17:29:44.057Z,7.90
2022-11-30T17:32:10.693Z,7.90
2022-11-30T17:34:37.314Z,7.80
2022-11-30T17:37:03.905Z,7.90
2022-11-30T17:39:30.706Z,7.90
2022-11-30T17:41:57.354Z,7.90
2022-11-30T17:44:23.926Z,7.90
2022-11-30T17:46:50.552Z,8.00
2022-11-30T17:49:17.242Z,8.00
2022-11-30T17:51:43.957Z,8.00
2022-11-30T17:54:11.645Z,8.00
2022-11-30T17:56:38.339Z,7.90
2022-11-30T17:59:04.947Z,7.90
2022-11-30T18:01:31.643Z,7.90
2022-11-30T18:03:58.915Z,7.90
2022-11-30T18:06:25.582Z,7.90
2022-11-30T18:08:52.544Z,7.90
2022-11-30T18:11:21.999Z,7.90
2022-11-30T18:13:51.506Z,7.90
2022-11-30T18:16:20.573Z,7.90
2022-11-30T18:18:48.705Z,7.80
2022-11-30T18:21:18.948Z,7.80
2022-11-30T18:23:46.440Z,7.80
2022-11-30T18:26:16.278Z,7.80
2022-11-30T18:28:43.548Z,7.70
2022-11-30T18:31:10.837Z,7.70
2022-11-30T18:33:38.324Z,7.70
2022-11-30T18:36:08.779Z,7.60
2022-11-30T18:38:38.504Z,7.60
2022-11-30T18:41:05.718Z,7.50
2022-11-30T18:43:33.383Z,7.50
2022-11-30T18:46:08.817Z,7.50
2022-11-30T18:48:36.628Z,7.40
2022-11-30T18:51:14.083Z,7.40
2022-11-30T18:53:41.507Z,7.40
2022-11-30T18:56:13.863Z,7.40
2022-11-30T18:58:44.436Z,7.30
2022-11-30T19:01:19.165Z,7.30
2022-11-30T19:03:59.646Z,7.30
2022-11-30T19:06:29.470Z,7.30
2022-11-30T19:08:57.093Z,7.20
2022-11-30T19:11:23.987Z,7.20
2022-11-30T19:13:58.104Z,7.10
2022-11-30T19:16:26.714Z,7.10
2022-11-30T19:18:54.437Z,7.10
2022-11-30T19:21:22.470Z,7.10
2022-11-30T19:23:49.858Z,7.10
2022-11-30T19:26:16.720Z,7.00
2022-11-30T19:28:44.646Z,7.00
2022-11-30T19:31:14.174Z,7.00
2022-11-30T19:33:43.537Z,7.00
2022-11-30T19:36:15.659Z,6.90
2022-11-30T19:38:42.411Z,6.90
2022-11-30T19:41:10.613Z,6.80
2022-11-30T19:43:37.616Z,6.80
2022-11-30T19:46:09.640Z,6.70
2022-11-30T19:48:36.887Z,6.60
2022-11-30T19:51:16.293Z,6.60
2022-11-30T19:53:44.872Z,6.60
2022-11-30T19:56:16.602Z,6.60
2022-11-30T19:58:44.997Z,6.50
2022-11-30T20:01:12.851Z,6.40
2022-11-30T20:03:39.584Z,6.30
2022-11-30T20:06:06.405Z,6.40
2022-11-30T20:08:32.970Z,6.30
2022-11-30T20:10:59.586Z,6.30
2022-11-30T20:13:26.255Z,6.30
2022-11-30T20:15:52.896Z,6.40
2022-11-30T20:18:19.512Z,6.40
2022-11-30T20:20:46.082Z,6.50
2022-11-30T20:23:12.635Z,6.50
2022-11-30T20:25:39.310Z,6.50
2022-11-30T20:28:09.597Z,6.40
2022-11-30T20:30:37.776Z,6.40
2022-11-30T20:33:04.430Z,6.40
2022-11-30T20:35:31.034Z,6.40
2022-11-30T20:37:57.644Z,6.30
2022-11-30T20:40:24.229Z,6.30
2022-11-30T20:42:52.435Z,6.30
2022-11-30T20:45:19.060Z,6.20
2022-11-30T20:47:45.690Z,6.10
2022-11-30T20:50:12.317Z,6.10
2022-11-30T20:52:38.894Z,6.00
2022-11-30T20:55:05.839Z,6.00
2022-11-30T20:57:33.023Z,5.90
2022-11-30T20:59:59.591Z,5.90
2022-11-30T21:02:26.240Z,5.90
2022-11-30T21:04:53.040Z,5.90
2022-11-30T21:07:19.635Z,5.90
2022-11-30T21:09:46.292Z,5.90
2022-11-30T21:12:13.054Z,5.90
2022-11-30T21:14:39.846Z,5.90
2022-11-30T21:17:06.485Z,5.90
2022-11-30T21:19:33.596Z,5.90
2022-11-30T21:22:00.190Z,5.80
2022-11-30T21:24:26.739Z,5.80
2022-11-30T21:26:53.321Z,5.80
2022-11-30T21:29:20.015Z,5.80
2022-11-30T21:31:46.688Z,5.80
2022-11-30T21:34:13.689Z,5.80
2022-11-30T21:36:40.354Z,5.80
2022-11-30T21:39:07.826Z,5.80
2022-11-30T21:41:36.465Z,5.80
2022-11-30T21:44:04.399Z,5.80
2022-11-30T21:46:31.919Z,5.80
2022-11-30T21:48:58.646Z,5.80
2022-11-30T21:51:27.997Z,5.70
2022-11-30T21:53:57.435Z,5.70
2022-11-30T21:56:26.772Z,5.60
2022-11-30T21:58:53.754Z,5.50
2022-11-30T22:01:24.183Z,5.40
2022-11-30T22:03:51.474Z,5.40
2022-11-30T22:06:19.322Z,5.40
2022-11-30T22:08:46.669Z,5.40
2022-11-30T22:11:21.836Z,5.30
2022-11-30T22:13:52.830Z,5.30
2022-11-30T22:16:20.875Z,5.20
2022-11-30T22:18:48.321Z,5.20
2022-11-30T22:21:20.863Z,5.20
2022-11-30T22:24:09.383Z,5.20
2022-11-30T22:26:38.145Z,5.20
2022-11-30T22:29:07.609Z,5.20
2022-11-30T22:31:39.854Z,5.10
2022-11-30T22:34:06.717Z,5.10
2022-11-30T22:36:35.978Z,5.10
2022-11-30T22:39:09.636Z,5.10
2022-11-30T22:41:36.906Z,5.00
2022-11-30T22:44:03.582Z,4.90
2022-11-30T22:46:33.466Z,4.90
2022-11-30T22:49:06.002Z,4.90
2022-11-30T22:51:35.124Z,4.90
2022-11-30T22:54:02.586Z,4.90
2022-11-30T22:56:35.967Z,4.80
2022-11-30T22:59:03.902Z,4.80
2022-11-30T23:01:33.629Z,4.80
2022-11-30T23:04:08.344Z,4.80
2022-11-30T23:06:36.626Z,4.70
2022-11-30T23:09:04.898Z,4.70
2022-11-30T23:11:31.710Z,4.60
2022-11-30T23:13:58.349Z,4.60
2022-11-30T23:16:25.174Z,4.50
2022-11-30T23:18:54.828Z,4.50
2022-11-30T23:21:38.926Z,4.50
2022-11-30T23:24:09.195Z,4.50
2022-11-30T23:26:37.865Z,4.50
2022-11-30T23:29:06.992Z,4.50
2022-11-30T23:31:36.705Z,4.50
2022-11-30T23:34:11.700Z,4.50
2022-11-30T23:36:38.302Z,4.50
2022-11-30T23:39:08.151Z,4.50
2022-11-30T23:41:34.911Z,4.50
2022-11-30T23:44:01.766Z,4.40
2022-11-30T23:46:28.698Z,4.40
2022-11-30T23:48:55.699Z,4.40
2022-11-30T23:51:23.387Z,4.40
2022-11-30T23:53:49.966Z,4.40
2022-11-30T23:56:18.757Z,4.40
2022-11-30T23:58:45.638Z,4.50
